Time;durP1;ratioP1;P1;durP2;ratioP2;P2;SDS_P1;SDS_P2;PMS_P1;PMS_P2;Temp;Humidity;BMP_temperature;BMP_pressure;BME280_temperature;BME280_humidity;BME280_pressure;Samples;Min_cycle;Max_cycle;Signal;HPM_P1;HPM_P2
2022/08/09 00:01:32;;;;;;;3.13;2.70;;;16.40;99.90;;;;;;5050400;28;20546;-77
2022/08/09 00:03:59;;;;;;;3.17;2.90;;;16.40;99.90;;;;;;5047467;28;20760;-77
2022/08/09 00:06:26;;;;;;;3.00;2.80;;;16.40;99.90;;;;;;5049144;28;20202;-77
2022/08/09 00:08:54;;;;;;;3.30;3.00;;;16.30;99.90;;;;;;5053065;28;20198;-77
2022/08/09 00:11:21;;;;;;;4.90;3.83;;;16.30;99.90;;;;;;5048810;28;20195;-77
2022/08/09 00:13:49;;;;;;;2.90;2.70;;;16.30;99.90;;;;;;5051894;28;20202;-77
2022/08/09 00:16:15;;;;;;;3.20;2.90;;;16.20;99.90;;;;;;5047890;28;20199;-78
2022/08/09 00:18:44;;;;;;;3.00;2.70;;;16.20;99.90;;;;;;5051004;28;20202;-77
2022/08/09 00:21:10;;;;;;;2.97;2.67;;;16.20;99.90;;;;;;5045070;28;20259;-77
2022/08/09 00:23:38;;;;;;;4.33;2.60;;;16.20;99.90;;;;;;5052886;28;20706;-77
2022/08/09 00:26:05;;;;;;;3.47;3.00;;;16.10;99.90;;;;;;5046888;28;20203;-77
2022/08/09 00:28:32;;;;;;;5.43;4.97;;;16.10;99.90;;;;;;5052992;28;20193;-77
2022/08/09 00:30:59;;;;;;;5.27;4.87;;;16.10;99.90;;;;;;5045989;28;20222;-78
2022/08/09 00:33:26;;;;;;;5.03;4.73;;;16.10;99.90;;;;;;5050420;28;20223;-77
2022/08/09 00:35:54;;;;;;;5.30;4.90;;;16.10;99.90;;;;;;5052044;28;20201;-77
2022/08/09 00:38:21;;;;;;;5.60;5.20;;;16.10;99.90;;;;;;5048813;28;20199;-78
2022/08/09 00:40:48;;;;;;;5.57;5.17;;;16.10;99.90;;;;;;5049131;28;20220;-77
2022/08/09 00:43:15;;;;;;;5.60;5.10;;;16.10;99.90;;;;;;5047220;28;20213;-77
2022/08/09 00:45:42;;;;;;;5.70;5.20;;;16.10;99.90;;;;;;5052517;28;20661;-77
2022/08/09 00:48:09;;;;;;;5.50;5.10;;;16.00;99.90;;;;;;5043208;28;20758;-77
2022/08/09 00:50:36;;;;;;;5.77;5.37;;;16.00;99.90;;;;;;5051137;28;20774;-77
2022/08/09 00:53:05;;;;;;;5.10;4.80;;;16.00;99.90;;;;;;5050416;28;20198;-77
2022/08/09 00:55:31;;;;;;;5.90;5.50;;;15.90;99.90;;;;;;5049522;28;20206;-77
2022/08/09 00:57:58;;;;;;;6.53;6.13;;;15.90;99.90;;;;;;5047857;28;20233;-77
2022/08/09 01:00:25;;;;;;;5.40;5.00;;;15.80;99.90;;;;;;5047105;28;20223;-78
2022/08/09 01:02:57;;;;;;;6.07;5.67;;;15.80;99.90;;;;;;5049776;28;20265;-77
2022/08/09 01:05:31;;;;;;;6.20;5.80;;;15.80;99.90;;;;;;5046620;28;20200;-77
2022/08/09 01:08:06;;;;;;;5.67;5.20;;;15.80;99.90;;;;;;5043251;28;20215;-78
2022/08/09 01:10:38;;;;;;;6.07;5.40;;;15.70;99.90;;;;;;5047696;28;20763;-78
2022/08/09 01:13:22;;;;;;;5.57;5.17;;;15.70;99.90;;;;;;5042971;28;20201;-78
2022/08/09 01:15:53;;;;;;;5.80;5.30;;;15.70;99.90;;;;;;5048048;28;20265;-78
2022/08/09 01:18:26;;;;;;;5.90;5.40;;;15.70;99.90;;;;;;5049329;28;20200;-78
2022/08/09 01:20:59;;;;;;;6.53;5.93;;;15.70;99.90;;;;;;5047219;28;20211;-78
2022/08/09 01:23:45;;;;;;;5.83;5.33;;;15.60;99.90;;;;;;5054187;28;20291;-78
2022/08/09 01:26:26;;;;;;;5.50;5.20;;;15.50;99.90;;;;;;5050574;28;20193;-77
2022/08/09 01:28:55;;;;;;;5.60;5.20;;;15.50;99.90;;;;;;5053735;28;20733;-77
2022/08/09 01:31:27;;;;;;;5.80;5.30;;;15.40;99.90;;;;;;5048591;28;20205;-77
2022/08/09 01:33:56;;;;;;;6.17;5.57;;;15.40;99.90;;;;;;5056016;28;20192;-77
2022/08/09 01:36:26;;;;;;;6.60;5.77;;;15.40;99.90;;;;;;5052804;28;20665;-78
2022/08/09 01:38:54;;;;;;;5.93;5.53;;;15.40;99.90;;;;;;5055073;28;20200;-77
2022/08/09 01:41:24;;;;;;;6.33;5.83;;;15.40;99.90;;;;;;5051640;28;20700;-77
2022/08/09 01:43:53;;;;;;;6.10;5.70;;;15.40;99.90;;;;;;5052440;28;20237;-78
2022/08/09 01:46:25;;;;;;;7.10;6.40;;;15.30;99.90;;;;;;5050917;28;20267;-77
2022/08/09 01:48:55;;;;;;;7.67;7.00;;;15.20;99.90;;;;;;5049443;28;20189;-77
2022/08/09 01:51:23;;;;;;;7.00;6.40;;;15.20;99.90;;;;;;5055264;28;20278;-77
2022/08/09 01:53:51;;;;;;;7.07;6.50;;;15.20;99.90;;;;;;5051708;28;20251;-77
2022/08/09 01:56:19;;;;;;;6.67;6.17;;;15.10;99.90;;;;;;5053226;28;20257;-77
2022/08/09 01:58:47;;;;;;;7.23;6.53;;;15.10;99.90;;;;;;5051224;28;20195;-77
2022/08/09 02:01:15;;;;;;;7.50;6.80;;;15.00;99.90;;;;;;5053287;28;20195;-78
2022/08/09 02:03:44;;;;;;;9.10;8.20;;;15.00;99.90;;;;;;5048580;28;20713;-77
2022/08/09 02:06:13;;;;;;;9.23;8.30;;;15.00;99.90;;;;;;5054588;28;20192;-77
2022/08/09 02:08:43;;;;;;;9.20;8.30;;;15.00;99.90;;;;;;5047453;28;20200;-77
2022/08/09 02:11:12;;;;;;;10.70;9.70;;;15.00;99.90;;;;;;5062604;28;20265;-77
2022/08/09 02:13:42;;;;;;;11.83;10.67;;;14.90;99.90;;;;;;5053685;28;20606;-78
2022/08/09 02:16:11;;;;;;;11.37;10.37;;;14.90;99.90;;;;;;5050868;28;20678;-77
2022/08/09 02:18:39;;;;;;;12.57;11.30;;;14.80;99.90;;;;;;5053018;28;20200;-78
2022/08/09 02:21:12;;;;;;;12.03;10.80;;;14.80;99.90;;;;;;5049438;28;20304;-77
2022/08/09 02:23:46;;;;;;;11.80;10.70;;;14.80;99.90;;;;;;5054934;28;20211;-77
2022/08/09 02:26:15;;;;;;;11.33;10.23;;;14.80;99.90;;;;;;5049351;28;20200;-77
2022/08/09 02:28:47;;;;;;;12.13;10.10;;;14.80;99.90;;;;;;5055332;28;20763;-77
2022/08/09 02:31:18;;;;;;;9.50;8.60;;;14.80;99.90;;;;;;5049389;28;20230;-77
2022/08/09 02:33:47;;;;;;;9.23;8.30;;;14.70;99.90;;;;;;5052336;28;20237;-78
2022/08/09 02:36:18;;;;;;;8.40;7.70;;;14.60;99.90;;;;;;5045240;28;20620;-77
2022/08/09 02:38:49;;;;;;;9.20;8.27;;;14.50;99.90;;;;;;5053910;28;20196;-78
2022/08/09 02:41:19;;;;;;;9.03;8.33;;;14.50;99.90;;;;;;5050046;28;20262;-81
2022/08/09 02:43:48;;;;;;;9.10;8.37;;;14.50;99.90;;;;;;5045286;28;20271;-77
2022/08/09 02:46:17;;;;;;;8.70;7.90;;;14.50;99.90;;;;;;5050679;28;20197;-77
2022/08/09 02:48:45;;;;;;;10.77;8.23;;;14.50;99.90;;;;;;5048906;28;20202;-77
2022/08/09 02:51:18;;;;;;;9.27;8.50;;;14.40;99.90;;;;;;5043286;28;20192;-77
2022/08/09 02:53:49;;;;;;;9.47;8.60;;;14.40;99.90;;;;;;5047455;28;20211;-77
2022/08/09 02:56:16;;;;;;;9.60;8.80;;;14.40;99.90;;;;;;5041656;28;20243;-76
2022/08/09 02:58:45;;;;;;;9.70;8.90;;;14.30;99.90;;;;;;5045770;28;20196;-76
2022/08/09 03:01:13;;;;;;;9.80;8.90;;;14.30;99.90;;;;;;5050409;28;20199;-77
2022/08/09 03:03:41;;;;;;;9.07;8.30;;;14.30;99.90;;;;;;5053096;28;20203;-76
2022/08/09 03:06:13;;;;;;;9.13;8.33;;;14.20;99.90;;;;;;5055980;28;20272;-76
2022/08/09 03:08:43;;;;;;;8.60;7.93;;;14.20;99.90;;;;;;5054256;28;20290;-77
2022/08/09 03:11:13;;;;;;;9.17;8.47;;;14.20;99.90;;;;;;5044155;28;20685;-78
2022/08/09 03:13:40;;;;;;;9.23;8.50;;;14.20;99.90;;;;;;5050111;28;20198;-78
2022/08/09 03:16:08;;;;;;;8.60;7.90;;;14.20;99.90;;;;;;5049688;28;20200;-76
2022/08/09 03:18:36;;;;;;;9.70;8.73;;;14.10;99.90;;;;;;5041931;28;20199;-78
2022/08/09 03:21:05;;;;;;;9.17;8.43;;;14.10;99.90;;;;;;5043379;28;20240;-78
2022/08/09 03:23:38;;;;;;;9.47;8.67;;;14.10;99.90;;;;;;5042883;28;20200;-77
2022/08/09 03:26:07;;;;;;;9.10;8.40;;;14.10;99.90;;;;;;5043629;28;20255;-80
2022/08/09 03:28:36;;;;;;;10.80;9.80;;;14.10;99.90;;;;;;5049128;28;20200;-76
2022/08/09 03:31:03;;;;;;;10.13;9.23;;;14.00;99.90;;;;;;5044630;28;20338;-77
2022/08/09 03:33:31;;;;;;;11.10;10.10;;;13.90;99.90;;;;;;5046236;28;20200;-77
2022/08/09 03:35:58;;;;;;;10.77;9.70;;;13.90;99.90;;;;;;5050696;28;20675;-77
2022/08/09 03:38:25;;;;;;;10.67;9.67;;;13.90;99.90;;;;;;5046296;28;20196;-77
2022/08/09 03:40:52;;;;;;;10.40;9.40;;;13.80;99.90;;;;;;5046011;28;20259;-77
2022/08/09 03:43:21;;;;;;;10.40;9.50;;;13.90;99.90;;;;;;5048662;28;20683;-77
2022/08/09 03:45:47;;;;;;;11.10;10.00;;;13.80;99.90;;;;;;5044584;28;20199;-77
2022/08/09 03:48:14;;;;;;;10.93;9.93;;;13.80;99.90;;;;;;5046573;28;20195;-77
2022/08/09 03:50:42;;;;;;;11.00;10.00;;;13.80;99.90;;;;;;5045356;28;20758;-79
2022/08/09 03:53:10;;;;;;;11.80;10.70;;;13.80;99.90;;;;;;5047234;28;20207;-77
2022/08/09 03:55:37;;;;;;;11.77;10.67;;;13.80;99.90;;;;;;5049968;28;20195;-76
2022/08/09 03:58:05;;;;;;;12.67;11.37;;;13.70;99.90;;;;;;5046679;28;20242;-76
2022/08/09 04:00:33;;;;;;;11.80;10.70;;;13.80;99.90;;;;;;5047645;28;20215;-79
2022/08/09 04:03:01;;;;;;;11.10;10.03;;;13.70;99.90;;;;;;5045857;28;20676;-78
2022/08/09 04:05:28;;;;;;;12.07;10.90;;;13.70;99.90;;;;;;5044165;28;20273;-77
2022/08/09 04:07:54;;;;;;;11.13;10.20;;;13.70;99.90;;;;;;5044733;28;20188;-77
2022/08/09 04:10:22;;;;;;;11.13;10.13;;;13.70;99.90;;;;;;5041908;28;20274;-77
2022/08/09 04:12:50;;;;;;;11.63;10.63;;;13.70;99.90;;;;;;5050581;28;20206;-77
2022/08/09 04:15:18;;;;;;;11.30;10.30;;;13.70;99.90;;;;;;5044096;28;20192;-78
2022/08/09 04:17:46;;;;;;;12.00;11.00;;;13.70;99.90;;;;;;5049767;28;20195;-77
2022/08/09 04:20:14;;;;;;;12.23;11.17;;;13.70;99.90;;;;;;5046120;28;20261;-78
2022/08/09 04:22:41;;;;;;;11.20;10.30;;;13.70;99.90;;;;;;5043979;28;20626;-77
2022/08/09 04:25:09;;;;;;;11.50;10.50;;;13.60;99.90;;;;;;5045146;28;20299;-77
2022/08/09 04:27:40;;;;;;;11.93;10.83;;;13.60;99.90;;;;;;5045036;28;20215;-79
2022/08/09 04:30:09;;;;;;;10.97;9.80;;;13.60;99.90;;;;;;5050499;28;20749;-77
2022/08/09 04:32:36;;;;;;;11.07;9.53;;;13.70;99.90;;;;;;5045589;28;20253;-77
2022/08/09 04:35:06;;;;;;;10.10;9.20;;;13.70;99.90;;;;;;5049536;28;20195;-77
2022/08/09 04:37:33;;;;;;;10.13;9.33;;;13.70;99.90;;;;;;5046823;28;20201;-78
2022/08/09 04:39:59;;;;;;;10.27;9.37;;;13.70;99.90;;;;;;5050126;28;20235;-77
2022/08/09 04:42:28;;;;;;;9.40;8.70;;;13.70;99.90;;;;;;5045403;28;20192;-76
2022/08/09 04:44:55;;;;;;;8.97;8.27;;;13.80;99.90;;;;;;5048326;28;20207;-76
2022/08/09 04:47:22;;;;;;;9.80;9.00;;;13.80;99.90;;;;;;5044643;28;20245;-78
2022/08/09 04:49:48;;;;;;;9.80;8.90;;;13.90;99.90;;;;;;5045162;28;20239;-77
2022/08/09 04:52:17;;;;;;;9.03;8.33;;;13.90;99.90;;;;;;5049009;28;20197;-77
2022/08/09 04:54:44;;;;;;;8.63;7.83;;;14.00;99.90;;;;;;5047887;28;20192;-76
2022/08/09 04:57:11;;;;;;;8.23;7.63;;;14.10;99.90;;;;;;5046151;28;20730;-76
2022/08/09 04:59:38;;;;;;;7.90;7.30;;;14.10;99.90;;;;;;5048774;28;20217;-77
2022/08/09 05:02:05;;;;;;;8.00;7.40;;;14.20;99.90;;;;;;5047269;28;20293;-77
2022/08/09 05:04:32;;;;;;;8.17;7.57;;;14.20;99.90;;;;;;5047318;28;20211;-77
2022/08/09 05:06:59;;;;;;;8.43;7.83;;;14.30;99.90;;;;;;5049127;28;20238;-77
2022/08/09 05:09:29;;;;;;;8.53;7.83;;;14.40;99.90;;;;;;5050771;28;20287;-77
2022/08/09 05:11:56;;;;;;;7.70;7.20;;;14.50;99.90;;;;;;5050161;28;20246;-78
2022/08/09 05:14:23;;;;;;;7.70;7.20;;;14.70;99.90;;;;;;5044662;28;20200;-77
2022/08/09 05:16:49;;;;;;;7.80;7.20;;;14.80;99.90;;;;;;5048199;28;20250;-77
2022/08/09 05:19:20;;;;;;;7.60;7.10;;;15.00;99.90;;;;;;5048165;28;20220;-77
2022/08/09 05:21:48;;;;;;;7.70;7.10;;;15.10;99.90;;;;;;5047768;28;20206;-78
2022/08/09 05:24:15;;;;;;;7.60;7.10;;;15.30;99.90;;;;;;5051699;28;20585;-77
2022/08/09 05:26:43;;;;;;;7.73;7.23;;;15.40;99.90;;;;;;5052100;28;20672;-77
2022/08/09 05:29:10;;;;;;;7.60;7.10;;;15.60;99.90;;;;;;5048070;28;20217;-77
2022/08/09 05:31:37;;;;;;;7.70;7.00;;;15.70;99.90;;;;;;5050263;28;20605;-78
2022/08/09 05:34:04;;;;;;;7.23;6.73;;;15.90;99.90;;;;;;5047548;28;20727;-77
2022/08/09 05:36:30;;;;;;;7.60;7.00;;;16.10;99.90;;;;;;5046444;28;20213;-77
2022/08/09 05:38:57;;;;;;;6.83;6.43;;;16.30;99.90;;;;;;5047888;28;20443;-77
2022/08/09 05:41:24;;;;;;;7.50;7.00;;;16.50;99.90;;;;;;5061008;23;20228;-77
2022/08/09 05:43:52;;;;;;;4.53;4.13;;;16.60;99.90;;;;;;5028445;28;20200;-77
2022/08/09 05:46:19;;;;;;;5.83;5.43;;;16.70;99.90;;;;;;5033709;28;20212;-77
2022/08/09 05:48:46;;;;;;;6.77;6.27;;;17.00;99.90;;;;;;5035375;28;20285;-77
2022/08/09 05:51:12;;;;;;;4.23;3.83;;;17.30;99.90;;;;;;5025561;28;20280;-77
2022/08/09 05:53:39;;;;;;;3.70;3.40;;;17.70;99.90;;;;;;5025005;28;20680;-77
2022/08/09 05:56:06;;;;;;;5.67;5.17;;;18.10;99.90;;;;;;5030406;28;20203;-77
2022/08/09 05:58:33;;;;;;;5.63;5.23;;;18.30;99.90;;;;;;5026477;28;20231;-77
2022/08/09 06:01:02;;;;;;;4.00;3.27;;;18.20;99.90;;;;;;5031216;28;20262;-77
2022/08/09 06:03:29;;;;;;;6.40;5.90;;;18.10;99.90;;;;;;5021407;28;20635;-77
2022/08/09 06:05:56;;;;;;;6.40;6.00;;;18.00;99.90;;;;;;5046474;28;20216;-77
2022/08/09 06:08:22;;;;;;;6.20;5.80;;;18.00;99.90;;;;;;5026159;28;20247;-77
2022/08/09 06:10:49;;;;;;;6.47;6.00;;;17.90;99.90;;;;;;5027866;28;20267;-77
2022/08/09 06:13:16;;;;;;;6.60;6.20;;;17.90;99.90;;;;;;5027007;28;20206;-77
2022/08/09 06:15:43;;;;;;;6.43;6.00;;;17.90;99.90;;;;;;5025166;28;20196;-77
2022/08/09 06:18:11;;;;;;;6.83;6.23;;;17.90;99.90;;;;;;5024493;28;20200;-77
2022/08/09 06:20:38;;;;;;;6.83;6.33;;;18.00;99.90;;;;;;5029227;28;20697;-77
2022/08/09 06:23:05;;;;;;;7.37;6.83;;;18.10;99.90;;;;;;5030054;28;20300;-77
2022/08/09 06:25:31;;;;;;;5.73;5.30;;;18.20;99.90;;;;;;5033721;28;20235;-77
2022/08/09 06:27:58;;;;;;;4.73;4.43;;;18.20;99.90;;;;;;5029016;28;20217;-77
2022/08/09 06:30:25;;;;;;;3.90;3.50;;;18.40;99.90;;;;;;5026198;28;20271;-76
2022/08/09 06:32:52;;;;;;;4.53;4.13;;;18.40;99.90;;;;;;5033177;28;20645;-77
2022/08/09 06:35:20;;;;;;;4.43;3.80;;;18.60;99.90;;;;;;5025280;28;20193;-78
2022/08/09 06:37:47;;;;;;;3.50;3.17;;;18.70;99.90;;;;;;5030115;28;20189;-77
2022/08/09 06:40:14;;;;;;;6.07;5.47;;;18.80;99.90;;;;;;5026228;28;20227;-78
2022/08/09 06:42:41;;;;;;;6.30;5.73;;;19.00;99.90;;;;;;5025230;28;20553;-77
2022/08/09 06:45:09;;;;;;;4.80;4.30;;;19.10;99.90;;;;;;5029928;28;20696;-77
2022/08/09 06:47:36;;;;;;;8.90;8.20;;;19.40;99.90;;;;;;5028183;28;20197;-78
2022/08/09 06:50:03;;;;;;;6.90;6.30;;;19.70;99.90;;;;;;5024174;28;20778;-77
2022/08/09 06:52:31;;;;;;;9.80;9.00;;;19.90;99.90;;;;;;5025616;28;20737;-77
2022/08/09 06:54:58;;;;;;;6.50;5.90;;;19.90;99.90;;;;;;5027841;28;20285;-77
2022/08/09 06:57:25;;;;;;;8.30;7.60;;;20.20;99.90;;;;;;5025315;28;20724;-77
2022/08/09 06:59:52;;;;;;;5.60;5.10;;;20.40;99.90;;;;;;5025573;28;20267;-77
2022/08/09 07:02:19;;;;;;;5.30;4.60;;;20.70;99.90;;;;;;5028923;28;20569;-77
2022/08/09 07:04:46;;;;;;;7.67;6.97;;;20.80;99.90;;;;;;5030077;28;20215;-78
2022/08/09 07:07:14;;;;;;;6.03;4.67;;;21.20;99.90;;;;;;5026516;28;20287;-78
2022/08/09 07:09:43;;;;;;;5.50;4.57;;;21.40;99.90;;;;;;5027980;28;20223;-78
2022/08/09 07:12:11;;;;;;;8.70;7.80;;;21.70;99.90;;;;;;5026970;28;20247;-78
2022/08/09 07:14:37;;;;;;;7.20;6.60;;;21.80;99.90;;;;;;5026795;28;20253;-78
2022/08/09 07:17:04;;;;;;;8.67;8.07;;;21.90;99.90;;;;;;5027343;28;20196;-78
2022/08/09 07:19:31;;;;;;;7.63;6.73;;;22.10;99.90;;;;;;5033641;28;20200;-78
2022/08/09 07:21:58;;;;;;;10.00;6.93;;;22.10;99.90;;;;;;5030024;28;20235;-78
2022/08/09 07:24:25;;;;;;;7.53;6.93;;;22.40;99.90;;;;;;5028899;28;20211;-78
2022/08/09 07:26:53;;;;;;;7.10;6.50;;;22.50;99.90;;;;;;5030032;28;20224;-78
2022/08/09 07:29:20;;;;;;;7.37;6.47;;;22.90;99.90;;;;;;5020251;28;20194;-79
2022/08/09 07:31:47;;;;;;;7.40;6.80;;;22.90;99.90;;;;;;5019040;28;20206;-78
2022/08/09 07:34:14;;;;;;;8.20;7.50;;;23.40;99.90;;;;;;5025292;28;20730;-78
2022/08/09 07:36:40;;;;;;;8.80;7.87;;;23.90;99.90;;;;;;5026574;28;20250;-78
2022/08/09 07:39:07;;;;;;;8.07;7.37;;;24.10;99.90;;;;;;5030166;28;20223;-78
2022/08/09 07:41:34;;;;;;;6.80;6.17;;;24.40;99.90;;;;;;5027413;28;20232;-78
2022/08/09 07:44:03;;;;;;;7.10;6.50;;;24.50;99.90;;;;;;5031831;28;20200;-79
2022/08/09 07:46:30;;;;;;;6.97;6.33;;;24.50;99.90;;;;;;5029531;28;20250;-77
2022/08/09 07:48:56;;;;;;;7.30;6.57;;;24.50;99.90;;;;;;5025601;28;20207;-79
2022/08/09 07:51:23;;;;;;;7.13;6.40;;;24.80;99.90;;;;;;5029484;28;20757;-80
2022/08/09 07:53:51;;;;;;;7.13;6.53;;;25.30;99.90;;;;;;5025976;28;20187;-78
2022/08/09 07:56:18;;;;;;;6.70;6.20;;;25.60;99.90;;;;;;5025900;28;20184;-78
2022/08/09 07:58:45;;;;;;;5.27;4.87;;;26.00;99.90;;;;;;5026918;28;20330;-78
2022/08/09 08:01:13;;;;;;;3.37;2.80;;;26.40;99.90;;;;;;5028228;28;20263;-77
2022/08/09 08:03:40;;;;;;;5.50;4.87;;;26.60;99.90;;;;;;5027893;28;20253;-76
2022/08/09 08:06:07;;;;;;;4.43;4.03;;;26.80;99.90;;;;;;5020353;28;20282;-77
2022/08/09 08:08:34;;;;;;;5.37;4.97;;;26.80;99.90;;;;;;5025132;28;20196;-76
2022/08/09 08:11:01;;;;;;;7.40;4.90;;;26.70;99.90;;;;;;5023028;28;20223;-77
2022/08/09 08:13:29;;;;;;;6.40;5.93;;;26.80;99.90;;;;;;5022721;28;20199;-76
2022/08/09 08:15:55;;;;;;;4.83;4.43;;;26.80;99.90;;;;;;5022521;28;20258;-76
2022/08/09 08:18:24;;;;;;;4.93;4.43;;;27.20;99.90;;;;;;5025021;28;20694;-76
2022/08/09 08:20:50;;;;;;;5.10;4.70;;;27.10;99.90;;;;;;5019411;28;20220;-77
2022/08/09 08:23:17;;;;;;;4.83;4.43;;;27.60;99.90;;;;;;5027029;28;20262;-76
2022/08/09 08:25:45;;;;;;;5.20;4.80;;;27.70;99.80;;;;;;5023288;28;20212;-76
2022/08/09 08:28:12;;;;;;;6.00;5.50;;;27.30;99.70;;;;;;5019141;28;20188;-81
2022/08/09 08:30:39;;;;;;;5.73;5.40;;;27.50;99.90;;;;;;5033524;28;20223;-80
2022/08/09 08:33:06;;;;;;;5.30;4.90;;;27.90;99.90;;;;;;5025493;28;20246;-80
2022/08/09 08:35:34;;;;;;;5.70;5.20;;;28.20;99.20;;;;;;5029856;28;20188;-78
2022/08/09 08:38:01;;;;;;;5.70;5.27;;;28.00;98.30;;;;;;5025180;28;20286;-80
2022/08/09 08:40:28;;;;;;;5.97;5.57;;;28.00;98.10;;;;;;5033829;28;20223;-79
2022/08/09 08:42:55;;;;;;;6.40;5.93;;;28.10;97.90;;;;;;5025343;28;20724;-80
2022/08/09 08:45:28;;;;;;;6.73;6.20;;;28.30;98.80;;;;;;5029840;28;20266;-80
2022/08/09 08:47:55;;;;;;;7.10;6.60;;;28.50;97.40;;;;;;5030707;28;20200;-80
2022/08/09 08:50:22;;;;;;;7.00;6.40;;;28.50;97.30;;;;;;5030369;28;20219;-80
2022/08/09 08:52:52;;;;;;;6.33;5.93;;;28.60;97.50;;;;;;5025969;28;20200;-80
2022/08/09 08:55:19;;;;;;;6.10;5.60;;;28.90;97.50;;;;;;5027819;28;20656;-80
2022/08/09 08:57:46;;;;;;;6.67;5.33;;;29.20;96.90;;;;;;5025066;28;20590;-80
2022/08/09 09:00:13;;;;;;;6.73;6.10;;;29.20;96.60;;;;;;5027333;28;20220;-80
2022/08/09 09:02:41;;;;;;;6.60;6.13;;;29.40;96.20;;;;;;5030115;28;20200;-79
2022/08/09 09:05:12;;;;;;;6.60;6.10;;;29.70;95.40;;;;;;5026965;28;20203;-80
2022/08/09 09:07:43;;;;;;;7.27;6.70;;;29.50;96.10;;;;;;5033969;28;20223;-81
2022/08/09 09:10:11;;;;;;;6.87;6.33;;;29.90;94.80;;;;;;5024306;28;20223;-80
2022/08/09 09:12:39;;;;;;;6.50;6.00;;;29.80;94.50;;;;;;5029181;28;20628;-81
2022/08/09 09:15:07;;;;;;;6.97;6.47;;;30.20;95.90;;;;;;5023187;28;20212;-81
2022/08/09 09:17:35;;;;;;;7.03;6.53;;;30.40;95.00;;;;;;5028661;28;20571;-81
2022/08/09 09:20:06;;;;;;;7.33;6.30;;;30.50;94.50;;;;;;5033827;28;20216;-80
2022/08/09 09:22:49;;;;;;;6.27;5.77;;;30.80;93.20;;;;;;5029689;28;20192;-81
2022/08/09 09:25:30;;;;;;;6.30;5.70;;;30.40;92.70;;;;;;5048877;28;20208;-81
2022/08/09 09:27:57;;;;;;;4.27;3.87;;;30.10;92.30;;;;;;5036363;28;20564;-80
2022/08/09 09:30:24;;;;;;;5.73;5.33;;;30.20;93.70;;;;;;5036612;28;20212;-80
2022/08/09 09:33:02;;;;;;;6.10;5.63;;;30.50;92.60;;;;;;5032040;28;20223;-80
2022/08/09 09:35:29;;;;;;;6.40;5.90;;;30.10;91.80;;;;;;5031221;28;20653;-80
2022/08/09 09:37:56;;;;;;;6.53;5.60;;;30.30;92.00;;;;;;5028992;28;20200;-80
2022/08/09 09:40:41;;;;;;;6.30;5.80;;;30.40;91.60;;;;;;5035648;28;20224;-80
2022/08/09 09:43:07;;;;;;;6.50;5.87;;;30.80;90.50;;;;;;5026821;28;20188;-81
2022/08/09 09:45:47;;;;;;;6.07;5.67;;;30.70;87.40;;;;;;5039446;28;20215;-80
2022/08/09 09:48:14;;;;;;;6.47;5.97;;;30.50;82.80;;;;;;5033786;28;20198;-81
2022/08/09 09:50:42;;;;;;;6.23;5.70;;;30.40;87.20;;;;;;5037629;28;20224;-81
2022/08/09 09:53:14;;;;;;;6.40;5.93;;;30.50;83.60;;;;;;5036733;28;20258;-80
2022/08/09 09:55:52;;;;;;;6.40;6.00;;;30.30;84.40;;;;;;5035031;28;20633;-80
2022/08/09 09:58:19;;;;;;;6.60;6.00;;;30.50;83.40;;;;;;5030533;28;20198;-79
2022/08/09 10:00:48;;;;;;;5.10;4.70;;;30.20;84.00;;;;;;5053706;28;20247;-80
2022/08/09 10:03:15;;;;;;;2.60;2.40;;;30.10;83.40;;;;;;5034856;28;20219;-80
2022/08/09 10:05:58;;;;;;;2.70;2.50;;;29.90;83.40;;;;;;5033404;28;20216;-80
2022/08/09 10:08:24;;;;;;;3.37;2.40;;;30.10;84.20;;;;;;5026416;28;20200;-79
2022/08/09 10:10:53;;;;;;;3.60;3.20;;;29.80;83.20;;;;;;5036273;28;20219;-80
2022/08/09 10:13:19;;;;;;;3.33;3.03;;;29.70;85.90;;;;;;5037558;28;20262;-80
2022/08/09 10:15:51;;;;;;;4.10;3.80;;;29.70;83.40;;;;;;5033752;28;20223;-80
2022/08/09 10:18:18;;;;;;;4.17;3.83;;;29.60;83.00;;;;;;5036969;28;20212;-80
2022/08/09 10:20:45;;;;;;;5.83;4.77;;;29.30;82.20;;;;;;5039304;28;20273;-80
2022/08/09 10:23:15;;;;;;;5.13;4.73;;;28.60;82.70;;;;;;5031757;28;20606;-79
2022/08/09 10:25:44;;;;;;;7.10;3.40;;;28.50;84.80;;;;;;5037729;28;20627;-80
2022/08/09 10:28:13;;;;;;;2.47;2.20;;;28.80;87.20;;;;;;5030016;28;20735;-80
2022/08/09 10:30:40;;;;;;;6.17;5.67;;;28.70;83.60;;;;;;5037904;28;20219;-79
2022/08/09 10:33:08;;;;;;;7.30;6.60;;;28.60;84.20;;;;;;5028755;28;20962;-79
2022/08/09 10:35:35;;;;;;;5.70;5.30;;;28.60;84.30;;;;;;5038816;28;20196;-79
2022/08/09 10:38:05;;;;;;;6.37;5.90;;;28.50;82.10;;;;;;5035950;28;20264;-79
2022/08/09 10:40:32;;;;;;;5.67;3.00;;;28.40;83.40;;;;;;5025572;28;20228;-79
2022/08/09 10:42:59;;;;;;;2.73;2.53;;;28.30;84.30;;;;;;5034176;28;20575;-79
2022/08/09 10:45:30;;;;;;;3.17;2.93;;;28.00;84.50;;;;;;5033174;28;20204;-79
2022/08/09 10:48:06;;;;;;;5.97;5.43;;;28.00;84.40;;;;;;5035477;28;20727;-79
2022/08/09 10:53:48;;;;;;;2.70;2.13;;;28.20;85.70;;;;;;4996921;28;20627;-79
2022/08/09 10:56:17;;;;;;;2.30;2.13;;;27.80;85.30;;;;;;5031270;28;20294;-79
2022/08/09 10:58:45;;;;;;;2.50;2.30;;;27.90;87.60;;;;;;5039830;28;20676;-79
2022/08/09 11:01:39;;;;;;;5.30;4.90;;;28.00;83.80;;;;;;5036892;28;20285;-79
2022/08/09 11:04:17;;;;;;;6.20;5.10;;;27.90;84.10;;;;;;5032537;28;20251;-79
2022/08/09 11:06:45;;;;;;;6.23;5.20;;;27.80;84.80;;;;;;5038384;28;20203;-80
2022/08/09 11:09:16;;;;;;;2.00;1.90;;;27.80;85.70;;;;;;5052761;28;20196;-79
2022/08/09 11:12:09;;;;;;;2.33;2.13;;;27.80;86.50;;;;;;5034101;28;20219;-79
2022/08/09 11:14:40;;;;;;;5.43;5.03;;;27.80;87.50;;;;;;5048269;28;20250;-79
2022/08/09 11:17:49;;;;;;;4.20;3.90;;;27.60;86.10;;;;;;5033011;28;20613;-80
2022/08/09 11:20:18;;;;;;;3.90;3.60;;;27.50;84.20;;;;;;5023383;28;20247;-79
2022/08/09 11:23:01;;;;;;;6.17;5.63;;;27.50;84.30;;;;;;5035318;28;20202;-79
2022/08/09 11:25:37;;;;;;;5.50;5.10;;;27.60;83.20;;;;;;5035253;28;20227;-80
2022/08/09 11:28:36;;;;;;;5.40;5.00;;;27.80;83.40;;;;;;5033369;28;20227;-78
2022/08/09 11:31:24;;;;;;;5.23;4.93;;;28.10;84.80;;;;;;5033519;28;20220;-79
2022/08/09 11:33:55;;;;;;;5.83;5.30;;;28.00;87.10;;;;;;5033280;28;20195;-79
2022/08/09 11:36:25;;;;;;;5.90;5.33;;;27.90;85.20;;;;;;5029477;28;20251;-79
2022/08/09 11:39:03;;;;;;;5.40;5.00;;;28.00;84.60;;;;;;5033698;28;20200;-80
2022/08/09 11:41:30;;;;;;;5.00;4.70;;;27.90;85.60;;;;;;5044546;22;20232;-80
2022/08/09 11:43:58;;;;;;;5.90;5.40;;;27.90;85.80;;;;;;5014736;28;20213;-80
2022/08/09 11:46:26;;;;;;;5.63;5.23;;;27.80;84.90;;;;;;5019435;28;20216;-80
2022/08/09 11:48:55;;;;;;;5.50;5.00;;;27.70;86.70;;;;;;5022411;28;20692;-80
2022/08/09 11:51:26;;;;;;;5.53;5.17;;;27.80;86.80;;;;;;5009385;28;20224;-80
2022/08/09 11:54:13;;;;;;;5.60;5.10;;;27.80;87.90;;;;;;5001107;28;20621;-80
2022/08/09 11:56:39;;;;;;;5.50;5.00;;;27.80;84.20;;;;;;4999607;28;20577;-80
2022/08/09 11:59:08;;;;;;;2.27;2.10;;;27.70;83.20;;;;;;4995881;28;20204;-80
2022/08/09 12:01:36;;;;;;;3.50;2.20;;;27.60;84.30;;;;;;4999467;28;20299;-80
2022/08/09 12:04:06;;;;;;;2.47;2.13;;;27.40;84.50;;;;;;5006365;28;20196;-79
2022/08/09 12:06:35;;;;;;;5.17;4.67;;;27.40;85.00;;;;;;5000614;28;20749;-79
2022/08/09 12:09:04;;;;;;;5.40;4.90;;;27.40;84.50;;;;;;5009304;28;20292;-80
2022/08/09 12:11:31;;;;;;;5.70;5.17;;;27.30;83.60;;;;;;4995426;28;20272;-82
2022/08/09 12:13:59;;;;;;;5.00;4.67;;;27.30;84.50;;;;;;4997144;28;20205;-80
2022/08/09 12:16:31;;;;;;;9.63;5.17;;;27.30;85.20;;;;;;5004306;28;20193;-80
2022/08/09 12:18:58;;;;;;;5.73;5.33;;;27.40;84.20;;;;;;5004574;28;20213;-79
2022/08/09 12:21:28;;;;;;;5.50;5.10;;;27.30;83.60;;;;;;5005143;28;20213;-80
2022/08/09 12:23:57;;;;;;;6.57;6.13;;;27.30;85.30;;;;;;5002459;28;20188;-80
2022/08/09 12:26:24;;;;;;;5.60;5.10;;;27.30;83.80;;;;;;5010726;28;20200;-80
2022/08/09 12:28:53;;;;;;;7.33;5.10;;;27.40;84.30;;;;;;5003006;28;20201;-80
2022/08/09 12:31:23;;;;;;;5.30;5.00;;;27.40;84.30;;;;;;4998820;28;20221;-80
2022/08/09 12:33:51;;;;;;;5.27;4.87;;;27.40;83.20;;;;;;4993122;28;20209;-80
2022/08/09 12:36:18;;;;;;;5.10;4.57;;;27.50;84.00;;;;;;4993789;28;20625;-80
2022/08/09 12:38:45;;;;;;;5.00;4.60;;;27.50;84.10;;;;;;5001747;28;20211;-80
2022/08/09 12:41:14;;;;;;;5.13;4.77;;;27.60;84.40;;;;;;4994971;28;20243;-80
2022/08/09 12:43:42;;;;;;;5.70;5.20;;;27.60;83.20;;;;;;4996167;28;20189;-79
2022/08/09 12:46:10;;;;;;;5.77;5.27;;;27.50;83.90;;;;;;5003619;28;20255;-80
2022/08/09 12:48:37;;;;;;;5.47;5.17;;;27.60;82.90;;;;;;4998274;28;20200;-80
2022/08/09 12:51:04;;;;;;;5.60;5.20;;;27.50;84.20;;;;;;5000196;28;21839;-80
2022/08/09 12:53:33;;;;;;;5.63;5.13;;;27.50;84.40;;;;;;5005252;28;20197;-79
2022/08/09 12:56:16;;;;;;;5.70;5.20;;;27.60;83.60;;;;;;4998413;28;20193;-80
2022/08/09 12:59:03;;;;;;;6.03;5.23;;;27.60;83.20;;;;;;4995208;28;20261;-79